Time;durP1;ratioP1;P1;durP2;ratioP2;P2;SDS_P1;SDS_P2;PMS_P1;PMS_P2;Temp;Humidity;BMP_temperature;BMP_pressure;BME280_temperature;BME280_humidity;BME280_pressure;Samples;Min_cycle;Max_cycle;Signal;HPM_P1;HPM_P2
2020/12/31 00:00:18;;;;;;;10.53;7.87;;;;;;;-0.23;92.53;95199.81;1044659;28;20067;-43
2020/12/31 00:00:48;;;;;;;10.57;7.53;;;;;;;-0.20;92.33;95203.84;1044207;28;20449;-43
2020/12/31 00:01:19;;;;;;;8.63;7.03;;;;;;;-0.21;92.28;95197.06;1044331;28;20075;-45
2020/12/31 00:01:49;;;;;;;9.63;6.87;;;;;;;-0.20;92.23;95196.91;1044176;28;20065;-44
2020/12/31 00:02:20;;;;;;;8.90;6.90;;;;;;;-0.19;92.24;95195.94;1044236;28;20017;-43
2020/12/31 00:02:50;;;;;;;9.83;8.37;;;;;;;-0.21;92.73;95200.47;1044248;28;20491;-43
2020/12/31 00:03:21;;;;;;;11.97;7.93;;;;;;;-0.24;92.76;95198.19;1044524;28;20060;-43
2020/12/31 00:03:51;;;;;;;12.37;8.93;;;;;;;-0.23;92.83;95188.63;1044605;28;20028;-44
2020/12/31 00:04:23;;;;;;;13.70;9.00;;;;;;;-0.22;92.71;95195.44;1044306;28;20028;-44
2020/12/31 00:04:53;;;;;;;12.60;8.93;;;;;;;-0.25;92.50;95196.53;1043992;28;20017;-44
2020/12/31 00:05:24;;;;;;;13.40;9.27;;;;;;;-0.28;92.97;95193.44;1044177;28;20013;-43
2020/12/31 00:05:54;;;;;;;12.13;8.80;;;;;;;-0.23;92.62;95197.22;1044185;28;20023;-44
2020/12/31 00:06:25;;;;;;;11.13;8.47;;;;;;;-0.21;93.03;95192.69;1044606;28;20024;-45
2020/12/31 00:06:55;;;;;;;11.00;8.43;;;;;;;-0.17;92.84;95200.97;1044535;28;20102;-43
2020/12/31 00:07:26;;;;;;;10.80;7.83;;;;;;;-0.20;92.53;95191.75;1044401;28;20088;-42
2020/12/31 00:07:56;;;;;;;11.77;7.90;;;;;;;-0.20;92.47;95199.50;1040099;28;20051;-43
2020/12/31 00:08:27;;;;;;;10.27;7.80;;;;;;;-0.20;92.88;95196.09;1040406;28;20048;-49
2020/12/31 00:08:57;;;;;;;10.83;7.43;;;;;;;-0.17;92.38;95195.78;1040294;28;20032;-44
2020/12/31 00:09:28;;;;;;;9.50;7.40;;;;;;;-0.20;92.57;95201.25;1044241;28;20408;-43
2020/12/31 00:09:58;;;;;;;11.20;7.73;;;;;;;-0.19;92.78;95192.53;1044338;28;20081;-44
2020/12/31 00:10:30;;;;;;;9.77;7.60;;;;;;;-0.19;92.51;95201.09;1044696;28;20035;-44
2020/12/31 00:11:00;;;;;;;9.55;7.28;;;;;;;-0.17;92.60;95195.78;1044608;28;20008;-42
2020/12/31 00:11:31;;;;;;;9.57;7.30;;;;;;;-0.16;92.80;95194.84;1044715;28;20359;-43
2020/12/31 00:12:03;;;;;;;9.13;7.30;;;;;;;-0.19;92.99;95195.13;1044459;28;20078;-43
2020/12/31 00:12:33;;;;;;;10.27;7.03;;;;;;;-0.14;92.65;95192.91;1044713;28;20364;-43
2020/12/31 00:13:04;;;;;;;9.80;7.80;;;;;;;-0.17;92.77;95189.81;1044465;28;20032;-43
2020/12/31 00:13:34;;;;;;;9.50;7.67;;;;;;;-0.15;92.98;95195.63;1044490;28;20070;-44
2020/12/31 00:14:07;;;;;;;10.27;7.57;;;;;;;-0.16;93.16;95191.44;1044602;28;20351;-44
2020/12/31 00:14:38;;;;;;;8.95;7.50;;;;;;;-0.13;92.75;95191.94;1044585;28;20531;-44
2020/12/31 00:15:09;;;;;;;10.40;7.80;;;;;;;-0.11;92.72;95189.19;1044004;28;20047;-43
2020/12/31 00:15:39;;;;;;;10.27;7.37;;;;;;;-0.12;92.66;95190.16;1044181;28;20017;-44
2020/12/31 00:16:10;;;;;;;10.30;7.67;;;;;;;-0.09;92.33;95198.44;1044391;28;20107;-43
2020/12/31 00:16:40;;;;;;;9.83;7.57;;;;;;;-0.11;92.44;95192.59;1044134;28;20124;-44
2020/12/31 00:17:11;;;;;;;10.13;7.93;;;;;;;-0.11;92.55;95194.38;1044362;28;20400;-43
2020/12/31 00:17:41;;;;;;;8.90;7.63;;;;;;;-0.09;92.66;95192.44;1044665;28;20510;-43
2020/12/31 00:18:12;;;;;;;8.97;7.47;;;;;;;-0.09;92.54;95195.84;1044485;28;20016;-43
2020/12/31 00:18:42;;;;;;;9.67;8.00;;;;;;;-0.14;92.68;95195.47;1044646;28;20126;-44
2020/12/31 00:19:13;;;;;;;10.30;8.27;;;;;;;-0.10;93.04;95201.19;1044360;28;20078;-42
2020/12/31 00:19:43;;;;;;;10.77;8.43;;;;;;;-0.14;93.09;95190.31;1044151;28;20021;-43
2020/12/31 00:20:14;;;;;;;8.87;7.70;;;;;;;-0.10;92.94;95196.00;1043981;28;20025;-42
2020/12/31 00:20:44;;;;;;;10.80;8.30;;;;;;;-0.06;92.47;95187.78;1044123;28;20021;-42
2020/12/31 00:21:14;;;;;;;10.53;8.70;;;;;;;-0.04;92.32;95195.41;1040207;28;20025;-43
2020/12/31 00:21:45;;;;;;;9.67;7.97;;;;;;;-0.04;92.45;95191.03;1043921;28;20028;-43
2020/12/31 00:22:15;;;;;;;11.67;8.43;;;;;;;-0.04;92.39;95190.22;1044194;28;20047;-43
2020/12/31 00:22:46;;;;;;;13.00;8.80;;;;;;;-0.04;92.16;95190.22;1044064;28;20442;-43
2020/12/31 00:23:16;;;;;;;9.83;8.63;;;;;;;-0.06;92.40;95192.97;1044312;28;20028;-42
2020/12/31 00:23:47;;;;;;;12.57;9.33;;;;;;;-0.06;92.14;95192.97;1044085;28;20059;-41
2020/12/31 00:24:17;;;;;;;10.73;8.10;;;;;;;-0.06;92.48;95190.38;1044138;28;20044;-44
2020/12/31 00:24:48;;;;;;;12.40;9.40;;;;;;;-0.07;92.52;95196.50;1039876;28;20037;-43
2020/12/31 00:25:18;;;;;;;15.60;10.07;;;;;;;-0.08;92.45;95194.88;1040060;28;20052;-42
2020/12/31 00:25:51;;;;;;;18.90;12.80;;;;;;;-0.13;92.62;95191.94;1044104;28;20099;-43
2020/12/31 00:26:22;;;;;;;14.90;11.25;;;;;;;-0.13;93.22;95201.50;1044276;28;20025;-42
2020/12/31 00:26:53;;;;;;;15.33;11.10;;;;;;;-0.11;93.12;95200.34;1044594;28;20037;-43
2020/12/31 00:27:23;;;;;;;20.13;13.10;;;;;;;-0.12;92.85;95197.91;1044367;28;20107;-43
2020/12/31 00:27:54;;;;;;;18.17;12.03;;;;;;;-0.10;92.88;95203.78;1044655;28;20074;-43
2020/12/31 00:28:24;;;;;;;20.53;13.33;;;;;;;-0.14;93.39;95200.66;1044365;28;20117;-43
2020/12/31 00:28:54;;;;;;;21.63;13.73;;;;;;;-0.10;92.96;95201.19;1044373;28;20399;-43
2020/12/31 00:29:25;;;;;;;19.43;13.13;;;;;;;-0.10;92.67;95196.00;1044436;28;20048;-44
2020/12/31 00:29:55;;;;;;;19.00;13.07;;;;;;;-0.09;93.08;95195.03;1044390;28;20021;-47
2020/12/31 00:30:26;;;;;;;23.17;13.37;;;;;;;-0.08;93.22;95201.84;1044427;28;20124;-43
2020/12/31 00:30:56;;;;;;;27.17;15.57;;;;;;;-0.14;93.21;95199.84;1044569;28;20024;-44
2020/12/31 00:31:27;;;;;;;20.70;13.00;;;;;;;-0.09;93.38;95201.03;1044341;28;20017;-45
2020/12/31 00:31:57;;;;;;;21.90;14.33;;;;;;;-0.08;92.72;95199.25;1044351;28;20075;-45
2020/12/31 00:32:28;;;;;;;21.57;13.50;;;;;;;-0.12;93.26;95198.75;1044317;28;20020;-43
2020/12/31 00:32:58;;;;;;;22.33;13.70;;;;;;;-0.08;93.30;95199.25;1044096;28;20032;-43
2020/12/31 00:33:29;;;;;;;20.67;12.43;;;;;;;-0.03;93.05;95194.41;1044496;28;20426;-45
2020/12/31 00:33:59;;;;;;;15.27;10.63;;;;;;;-0.02;92.61;95204.63;1044325;28;20016;-44
2020/12/31 00:34:30;;;;;;;14.90;10.10;;;;;;;-0.02;92.76;95194.25;1044610;28;20070;-43
2020/12/31 00:35:02;;;;;;;16.57;10.50;;;;;;;0.02;92.76;95199.16;1044355;28;20060;-43
2020/12/31 00:35:33;;;;;;;21.85;13.13;;;;;;;-0.04;92.71;95201.38;1044352;28;20016;-45
2020/12/31 00:36:03;;;;;;;15.60;10.30;;;;;;;-0.02;93.11;95196.06;1044259;28;20328;-43
2020/12/31 00:36:34;;;;;;;15.50;9.60;;;;;;;-0.04;92.60;95196.19;1044057;28;20071;-44
2020/12/31 00:37:04;;;;;;;15.07;10.20;;;;;;;-0.02;92.45;95196.84;1044024;28;20032;-43
2020/12/31 00:37:35;;;;;;;15.80;10.30;;;;;;;0.01;92.42;95193.16;1039775;28;20044;-42
2020/12/31 00:38:06;;;;;;;13.63;9.07;;;;;;;0.03;92.39;95198.19;1040070;28;20028;-43
2020/12/31 00:38:36;;;;;;;11.37;7.97;;;;;;;0.06;92.26;95190.94;1044074;28;20096;-43
2020/12/31 00:39:07;;;;;;;8.63;6.30;;;;;;;0.07;91.66;95194.31;1044153;28;20074;-43
2020/12/31 00:39:37;;;;;;;9.10;7.37;;;;;;;0.03;92.18;95195.59;1045572;28;20452;-42
2020/12/31 00:40:08;;;;;;;9.40;7.10;;;;;;;0.03;92.20;95199.00;1045841;28;20059;-44
2020/12/31 00:40:38;;;;;;;9.23;7.03;;;;;;;0.06;91.98;95195.28;1045432;28;20405;-44
2020/12/31 00:41:09;;;;;;;9.90;6.93;;;;;;;0.08;91.96;95201.13;1045521;28;20084;-44
2020/12/31 00:41:39;;;;;;;10.70;7.37;;;;;;;0.07;92.33;95194.31;1041388;28;20462;-42
2020/12/31 00:42:10;;;;;;;11.57;7.37;;;;;;;0.11;91.60;95200.84;1041360;28;20028;-43
2020/12/31 00:42:40;;;;;;;8.40;6.90;;;;;;;0.13;91.66;95186.75;1045241;28;20107;-44
2020/12/31 00:43:11;;;;;;;8.13;6.67;;;;;;;0.15;91.33;95196.94;1045346;28;20092;-42
2020/12/31 00:43:41;;;;;;;8.67;7.03;;;;;;;0.17;90.90;95197.63;1045751;28;20107;-43
2020/12/31 00:44:12;;;;;;;8.73;6.60;;;;;;;0.19;91.23;95194.88;1045735;28;20013;-41
2020/12/31 00:44:42;;;;;;;7.47;6.47;;;;;;;0.20;91.01;95199.91;1045759;28;20021;-44
2020/12/31 00:45:13;;;;;;;8.03;6.07;;;;;;;0.20;91.05;95199.91;1045698;28;20066;-44
2020/12/31 00:45:43;;;;;;;8.97;6.67;;;;;;;0.19;91.13;95198.28;1045731;28;20059;-43
2020/12/31 00:46:14;;;;;;;7.37;6.50;;;;;;;0.21;90.64;95198.94;1045688;28;20024;-44
2020/12/31 00:46:44;;;;;;;7.60;6.03;;;;;;;0.21;90.33;95196.34;1045680;28;20103;-43
2020/12/31 00:47:15;;;;;;;7.37;5.90;;;;;;;0.20;90.58;95197.31;1045724;28;20102;-44
2020/12/31 00:47:45;;;;;;;8.73;6.23;;;;;;;0.23;90.52;95196.19;1045757;28;20067;-44
2020/12/31 00:48:16;;;;;;;6.80;5.97;;;;;;;0.20;90.24;95197.31;1045824;28;20020;-45
2020/12/31 00:48:46;;;;;;;6.90;5.90;;;;;;;0.22;90.58;95200.56;1045929;28;20037;-43
2020/12/31 00:49:17;;;;;;;6.80;5.80;;;;;;;0.25;90.08;95189.91;1045458;28;20101;-43
2020/12/31 00:49:47;;;;;;;7.37;6.20;;;;;;;0.25;89.77;95200.25;1041264;28;20108;-44
2020/12/31 00:50:18;;;;;;;7.07;6.00;;;;;;;0.26;89.84;95190.69;1041227;28;20096;-43
2020/12/31 00:50:48;;;;;;;7.63;5.80;;;;;;;0.26;89.97;95191.53;1041299;28;20037;-44
2020/12/31 00:51:19;;;;;;;6.63;5.57;;;;;;;0.25;90.13;95189.09;1045361;28;20025;-45
2020/12/31 00:51:49;;;;;;;8.53;5.83;;;;;;;0.26;90.23;95190.69;1045728;28;20372;-42
2020/12/31 00:52:20;;;;;;;9.90;5.97;;;;;;;0.25;90.17;95196.84;1045655;28;20021;-42
2020/12/31 00:52:51;;;;;;;8.45;5.75;;;;;;;0.26;89.89;95190.69;1045465;28;20104;-43
2020/12/31 00:53:21;;;;;;;7.00;5.70;;;;;;;0.28;89.71;95191.38;1045750;28;20037;-44
2020/12/31 00:53:52;;;;;;;7.57;5.67;;;;;;;0.26;89.37;95194.13;1045801;28;20345;-42
2020/12/31 00:54:22;;;;;;;8.13;5.90;;;;;;;0.25;89.67;95189.91;1045693;28;20373;-42
2020/12/31 00:54:53;;;;;;;6.40;5.70;;;;;;;0.24;89.80;95193.44;1045718;28;20028;-43
2020/12/31 00:55:23;;;;;;;7.70;5.40;;;;;;;0.30;89.38;95186.84;1045738;28;20017;-43
2020/12/31 00:55:53;;;;;;;7.03;5.33;;;;;;;0.29;89.06;95191.22;1045504;28;20100;-44
2020/12/31 00:56:24;;;;;;;6.30;5.27;;;;;;;0.32;88.67;95193.50;1041343;28;20014;-42
2020/12/31 00:56:55;;;;;;;6.90;5.10;;;;;;;0.33;88.59;95189.13;1041400;28;20386;-43
2020/12/31 00:57:25;;;;;;;6.77;5.63;;;;;;;0.26;89.33;95186.34;1041526;28;20108;-43
2020/12/31 00:57:55;;;;;;;6.73;5.60;;;;;;;0.29;88.87;95191.22;1045502;28;20357;-42
2020/12/31 00:58:26;;;;;;;7.53;5.30;;;;;;;0.31;88.49;95185.88;1045778;28;20053;-43
2020/12/31 00:58:56;;;;;;;7.70;5.87;;;;;;;0.30;88.91;95185.06;1045704;28;20414;-42
2020/12/31 00:59:27;;;;;;;7.20;5.50;;;;;;;0.27;89.35;95190.53;1045690;28;20099;-42
2020/12/31 00:59:57;;;;;;;6.40;5.43;;;;;;;0.29;88.98;95190.38;1045335;28;20115;-43
2020/12/31 01:00:28;;;;;;;6.87;5.30;;;;;;;0.29;89.16;95191.22;1045644;28;20393;-43
2020/12/31 01:00:58;;;;;;;7.07;5.73;;;;;;;0.28;89.45;95197.34;1045468;28;20086;-43
2020/12/31 01:01:29;;;;;;;8.10;5.80;;;;;;;0.29;88.48;95188.63;1045617;28;20024;-43
2020/12/31 01:01:59;;;;;;;7.73;5.70;;;;;;;0.26;89.17;95188.09;1045356;28;20094;-44
2020/12/31 01:02:30;;;;;;;7.03;5.60;;;;;;;0.24;89.34;95183.09;1045443;28;20009;-43
2020/12/31 01:03:01;;;;;;;7.07;5.67;;;;;;;0.22;88.77;95189.41;1045277;28;20044;-44
2020/12/31 01:03:31;;;;;;;7.05;5.45;;;;;;;0.22;88.70;95184.22;1045514;28;20024;-43
2020/12/31 01:04:02;;;;;;;7.13;5.47;;;;;;;0.17;89.47;95192.44;1045831;28;20348;-42
2020/12/31 01:04:32;;;;;;;6.60;5.43;;;;;;;0.19;89.03;95190.50;1045791;28;20005;-42
2020/12/31 01:05:07;;;;;;;7.80;5.57;;;;;;;0.22;88.42;95195.38;1045782;28;20416;-43
2020/12/31 01:05:37;;;;;;;6.43;5.30;;;;;;;0.24;89.08;95193.44;1045525;28;20009;-45
2020/12/31 01:06:08;;;;;;;7.67;5.40;;;;;;;0.23;88.56;95191.84;1041347;28;20013;-43
2020/12/31 01:06:39;;;;;;;7.07;5.20;;;;;;;0.22;88.49;95189.41;1041425;28;20409;-43
2020/12/31 01:07:15;;;;;;;6.73;5.10;;;;;;;0.23;88.78;95193.59;1041608;28;20013;-44
2020/12/31 01:07:45;;;;;;;6.60;5.53;;;;;;;0.23;88.43;95197.00;1045509;28;20013;-44
2020/12/31 01:08:16;;;;;;;7.00;5.43;;;;;;;0.19;88.21;95187.13;1045818;28;20013;-43
2020/12/31 01:08:47;;;;;;;7.20;5.73;;;;;;;0.16;88.82;95193.41;1045758;28;20021;-43
2020/12/31 01:09:17;;;;;;;6.43;5.27;;;;;;;0.14;88.73;95197.94;1045864;28;20243;-43
2020/12/31 01:09:48;;;;;;;6.37;5.00;;;;;;;0.13;88.60;95196.31;1045725;28;20017;-42
2020/12/31 01:10:22;;;;;;;6.93;4.77;;;;;;;0.17;88.22;95198.44;1045780;28;20106;-44
2020/12/31 01:10:53;;;;;;;6.10;5.35;;;;;;;0.18;88.38;95194.06;1045045;28;20075;-45
2020/12/31 01:11:23;;;;;;;7.07;5.50;;;;;;;0.16;88.33;95196.81;1045524;28;20020;-43
2020/12/31 01:11:55;;;;;;;6.70;5.10;;;;;;;0.14;88.64;95193.56;1045484;28;20365;-43
2020/12/31 01:12:25;;;;;;;6.13;4.93;;;;;;;0.15;88.63;95194.38;1045567;28;20378;-43
2020/12/31 01:12:56;;;;;;;6.63;5.00;;;;;;;0.16;88.08;95196.00;1045475;28;20025;-43
2020/12/31 01:13:26;;;;;;;6.23;5.10;;;;;;;0.15;88.52;95199.53;1045825;28;20128;-44
2020/12/31 01:13:57;;;;;;;6.70;5.17;;;;;;;0.14;88.41;95192.75;1045765;28;20104;-44
2020/12/31 01:14:27;;;;;;;6.27;4.70;;;;;;;0.12;88.23;95195.50;1045877;28;20016;-42
2020/12/31 01:14:58;;;;;;;6.30;5.10;;;;;;;0.13;87.96;95201.47;1045736;28;20025;-44
2020/12/31 01:15:28;;;;;;;7.17;4.90;;;;;;;0.10;88.42;95184.47;1045821;28;20037;-44
2020/12/31 01:15:59;;;;;;;6.63;5.17;;;;;;;0.10;87.80;95197.41;1045961;28;20025;-44
2020/12/31 01:16:29;;;;;;;6.50;5.10;;;;;;;0.10;88.12;95186.25;1045788;28;20036;-43
2020/12/31 01:17:00;;;;;;;5.80;5.00;;;;;;;0.09;88.01;95192.38;1045737;28;20354;-42
2020/12/31 01:17:30;;;;;;;6.30;5.00;;;;;;;0.07;87.94;95194.31;1046042;28;20021;-42
2020/12/31 01:18:01;;;;;;;5.90;4.60;;;;;;;0.08;88.19;95199.34;1045718;28;20499;-42
2020/12/31 01:18:31;;;;;;;7.07;5.00;;;;;;;0.10;88.40;95199.19;1045759;28;20032;-43
2020/12/31 01:19:02;;;;;;;5.77;4.93;;;;;;;0.10;88.05;95201.78;1045810;28;20044;-43
2020/12/31 01:19:32;;;;;;;6.50;4.80;;;;;;;0.07;87.70;95196.91;1045991;28;20020;-43
2020/12/31 01:20:03;;;;;;;7.13;5.47;;;;;;;0.06;87.88;95190.09;1045790;28;20432;-43
2020/12/31 01:20:34;;;;;;;6.10;4.97;;;;;;;0.07;88.16;95194.31;1045863;28;20044;-44
2020/12/31 01:21:13;;;;;;;5.90;5.00;;;;;;;0.04;88.26;95197.22;1045789;28;20401;-42
2020/12/31 01:21:47;;;;;;;6.45;5.10;;;;;;;0.04;87.76;95194.63;1046087;28;20017;-43
2020/12/31 01:22:17;;;;;;;6.53;4.80;;;;;;;0.02;87.79;95191.41;1045624;28;20393;-43
2020/12/31 01:22:48;;;;;;;6.67;4.90;;;;;;;0.03;88.28;95193.00;1045629;28;20025;-45
2020/12/31 01:23:18;;;;;;;6.30;5.10;;;;;;;0.04;87.91;95195.44;1045715;28;20526;-44
2020/12/31 01:23:49;;;;;;;6.87;5.00;;;;;;;0.00;88.32;95186.38;1045607;28;20075;-44
2020/12/31 01:24:19;;;;;;;5.70;4.80;;;;;;;-0.01;88.43;95195.91;1045885;28;20009;-43
2020/12/31 01:24:52;;;;;;;6.73;5.37;;;;;;;-0.01;88.29;95200.28;1045639;28;20041;-43
2020/12/31 01:25:22;;;;;;;6.10;4.78;;;;;;;0.00;87.99;95191.56;1045404;28;20017;-43
2020/12/31 01:25:53;;;;;;;6.40;4.97;;;;;;;-0.01;88.55;95200.28;1045380;28;20029;-42
2020/12/31 01:26:33;;;;;;;7.13;4.90;;;;;;;-0.05;88.10;95189.38;1045618;28;20082;-43
2020/12/31 01:27:03;;;;;;;6.60;4.82;;;;;;;-0.01;87.92;95200.28;1042714;28;20036;-43
2020/12/31 01:27:37;;;;;;;6.07;4.70;;;;;;;-0.06;87.91;95190.38;1045638;28;20047;-42
2020/12/31 01:28:07;;;;;;;6.38;5.00;;;;;;;-0.09;88.29;95193.28;1045916;28;20094;-45
2020/12/31 01:28:38;;;;;;;6.83;5.10;;;;;;;-0.10;88.43;95193.41;1045660;28;20038;-43
2020/12/31 01:29:09;;;;;;;6.17;5.20;;;;;;;-0.10;88.86;95190.84;1046022;28;20044;-45
2020/12/31 01:29:39;;;;;;;5.50;4.67;;;;;;;-0.09;88.25;95189.84;1046270;28;20673;-43
2020/12/31 01:30:10;;;;;;;6.17;5.03;;;;;;;-0.10;88.68;95196.00;1046177;28;20384;-43
2020/12/31 01:30:40;;;;;;;6.80;5.07;;;;;;;-0.11;88.77;95191.78;1045892;28;20009;-43
2020/12/31 01:31:11;;;;;;;5.73;4.93;;;;;;;-0.11;88.79;95190.00;1045917;28;20017;-42
2020/12/31 01:31:47;;;;;;;6.07;4.90;;;;;;;-0.12;88.83;95198.75;1046004;28;20012;-43
2020/12/31 01:32:24;;;;;;;7.72;5.30;;;;;;;-0.14;88.85;95192.91;1046097;28;20096;-43
2020/12/31 01:32:55;;;;;;;7.30;5.38;;;;;;;-0.17;88.50;95190.59;1045751;28;20017;-44
2020/12/31 01:33:25;;;;;;;7.07;5.10;;;;;;;-0.16;88.49;95192.25;1046027;28;20040;-42
2020/12/31 01:33:56;;;;;;;6.33;5.20;;;;;;;-0.17;89.09;95198.38;1046024;28;20017;-43
2020/12/31 01:34:26;;;;;;;7.10;5.43;;;;;;;-0.14;88.98;95199.84;1045875;28;20044;-42
2020/12/31 01:34:57;;;;;;;8.57;6.10;;;;;;;-0.15;88.57;95193.03;1046122;28;20091;-44
2020/12/31 01:35:27;;;;;;;6.77;5.33;;;;;;;-0.16;88.90;95192.25;1046053;28;20406;-43
2020/12/31 01:35:58;;;;;;;6.77;5.27;;;;;;;-0.17;88.62;95190.59;1046180;28;20173;-42
2020/12/31 01:36:28;;;;;;;8.07;5.40;;;;;;;-0.17;88.81;95189.81;1045889;28;20084;-44
2020/12/31 01:36:59;;;;;;;7.47;5.50;;;;;;;-0.15;88.83;95180.94;1045961;28;20098;-42
2020/12/31 01:37:29;;;;;;;7.07;5.30;;;;;;;-0.19;88.83;95187.38;1046087;28;20339;-43
2020/12/31 01:38:00;;;;;;;6.63;5.30;;;;;;;-0.20;89.00;95190.91;1046025;28;20071;-43
2020/12/31 01:38:30;;;;;;;7.17;5.10;;;;;;;-0.18;89.00;95189.00;1046165;28;20024;-44
2020/12/31 01:39:01;;;;;;;6.77;5.50;;;;;;;-0.17;88.69;95190.59;1046192;28;20099;-44
2020/12/31 01:39:31;;;;;;;7.40;5.30;;;;;;;-0.19;88.87;95195.94;1046196;28;20409;-43
2020/12/31 01:40:02;;;;;;;7.37;5.90;;;;;;;-0.22;89.10;95193.66;1046054;28;20024;-43
2020/12/31 01:40:33;;;;;;;7.43;5.37;;;;;;;-0.23;88.91;95196.38;1046016;28;20017;-43
2020/12/31 01:41:03;;;;;;;5.80;4.80;;;;;;;-0.24;89.31;95194.78;1045839;28;20023;-43
2020/12/31 01:41:34;;;;;;;7.20;5.60;;;;;;;-0.22;88.97;95193.66;1041553;28;20017;-42
2020/12/31 01:42:04;;;;;;;6.47;5.40;;;;;;;-0.22;89.31;95193.66;1041714;28;20072;-43
2020/12/31 01:42:35;;;;;;;7.97;5.33;;;;;;;-0.30;89.68;95190.22;1041430;28;20161;-44
2020/12/31 01:43:05;;;;;;;7.63;5.60;;;;;;;-0.27;89.50;95192.50;1037634;28;20056;-43
2020/12/31 01:43:36;;;;;;;6.00;5.03;;;;;;;-0.29;89.52;95187.47;1045610;28;20471;-43
2020/12/31 01:44:10;;;;;;;7.47;5.50;;;;;;;-0.31;89.96;95189.38;1045620;28;20013;-43
2020/12/31 01:44:41;;;;;;;6.60;5.30;;;;;;;-0.34;89.77;95188.88;1041976;28;20028;-43
2020/12/31 01:45:11;;;;;;;7.07;5.53;;;;;;;-0.32;89.86;95199.88;1045642;28;20020;-43
2020/12/31 01:45:42;;;;;;;7.07;5.57;;;;;;;-0.33;89.70;95195.66;1045664;28;20532;-43
2020/12/31 01:46:12;;;;;;;7.57;5.60;;;;;;;-0.35;90.09;95193.22;1045606;28;20025;-44
2020/12/31 01:46:44;;;;;;;7.00;4.93;;;;;;;-0.36;90.25;95195.00;1046154;28;20013;-42
2020/12/31 01:47:15;;;;;;;7.25;5.85;;;;;;;-0.35;90.10;95200.97;1046174;28;20020;-43
2020/12/31 01:47:45;;;;;;;7.37;5.83;;;;;;;-0.37;90.27;95197.75;1046025;28;20412;-44
2020/12/31 01:48:16;;;;;;;7.00;5.70;;;;;;;-0.37;90.16;95198.56;1046631;28;20096;-43
2020/12/31 01:48:46;;;;;;;6.70;5.73;;;;;;;-0.37;90.28;95201.13;1046189;28;20103;-42
2020/12/31 01:49:18;;;;;;;8.10;5.97;;;;;;;-0.37;90.54;95197.75;1045838;28;20541;-43
2020/12/31 01:49:48;;;;;;;10.35;6.93;;;;;;;-0.38;90.51;95196.94;1045916;28;20039;-42
2020/12/31 01:50:19;;;;;;;10.10;8.03;;;;;;;-0.39;90.74;95191.94;1041536;28;20032;-42
2020/12/31 01:50:49;;;;;;;11.57;8.17;;;;;;;-0.41;90.47;95192.06;1041554;28;20025;-42
2020/12/31 01:51:20;;;;;;;12.30;8.60;;;;;;;-0.42;90.60;95194.81;1044148;28;20020;-42
2020/12/31 01:51:50;;;;;;;9.07;7.50;;;;;;;-0.44;90.73;95194.13;1044980;28;20116;-43
2020/12/31 01:52:21;;;;;;;10.70;8.07;;;;;;;-0.45;91.05;95192.53;1044845;28;20025;-42
2020/12/31 01:52:51;;;;;;;9.93;7.57;;;;;;;-0.47;91.35;95190.09;1040492;28;20540;-42
2020/12/31 01:53:22;;;;;;;8.30;7.07;;;;;;;-0.55;91.38;95195.19;1040850;28;20014;-42
2020/12/31 01:53:56;;;;;;;9.93;7.53;;;;;;;-0.57;92.00;95191.94;1036741;28;20112;-42
2020/12/31 01:54:26;;;;;;;10.15;7.72;;;;;;;-0.59;91.89;95192.09;1036003;28;20395;-42
2020/12/31 01:54:57;;;;;;;8.83;7.00;;;;;;;-0.58;92.14;95188.56;1028581;28;20062;-42
2020/12/31 01:55:28;;;;;;;9.18;6.85;;;;;;;-0.59;92.23;95188.69;1029387;28;20011;-42
2020/12/31 01:55:59;;;;;;;10.03;7.30;;;;;;;-0.60;92.58;95190.44;1033494;28;20022;-42
2020/12/31 01:56:33;;;;;;;9.27;7.50;;;;;;;-0.62;92.24;95186.38;1044891;28;20072;-42
2020/12/31 01:57:03;;;;;;;8.65;6.95;;;;;;;-0.63;92.56;95187.38;1045416;28;20512;-42
2020/12/31 01:57:34;;;;;;;10.83;6.50;;;;;;;-0.64;92.35;95183.16;1045432;28;20021;-42
2020/12/31 01:58:04;;;;;;;8.30;7.10;;;;;;;-0.64;92.62;95185.72;1044956;28;20013;-42
2020/12/31 01:58:35;;;;;;;8.97;6.80;;;;;;;-0.62;92.40;95187.22;1044872;28;20024;-42
2020/12/31 01:59:05;;;;;;;8.50;7.20;;;;;;;-0.59;92.64;95191.28;1040785;28;20018;-42
2020/12/31 01:59:36;;;;;;;9.03;6.70;;;;;;;-0.67;92.91;95183.44;1041090;28;20068;-43
2020/12/31 02:00:06;;;;;;;9.10;7.00;;;;;;;-0.72;92.97;95178.72;1045148;28;20504;-42
2020/12/31 02:00:37;;;;;;;8.87;6.70;;;;;;;-0.69;92.83;95190.53;1045059;28;20056;-42
2020/12/31 02:01:07;;;;;;;8.37;6.70;;;;;;;-0.74;93.03;95184.03;1044940;28;20136;-43
2020/12/31 02:01:38;;;;;;;8.40;7.17;;;;;;;-0.73;93.02;95180.50;1045100;28;20021;-42
2020/12/31 02:02:09;;;;;;;9.70;7.10;;;;;;;-0.76;93.10;95178.22;1045009;28;20044;-41
2020/12/31 02:02:39;;;;;;;7.82;7.03;;;;;;;-0.74;93.38;95185.81;1045079;28;20506;-41
2020/12/31 02:03:10;;;;;;;12.80;9.93;;;;;;;-0.76;93.70;95183.38;1045058;28;20105;-42
2020/12/31 02:03:40;;;;;;;14.00;10.63;;;;;;;-0.77;93.47;95175.78;1045417;28;20555;-42
2020/12/31 02:04:11;;;;;;;16.80;12.37;;;;;;;-0.76;93.48;95174.81;1045193;28;20024;-43
2020/12/31 02:04:41;;;;;;;23.73;15.80;;;;;;;-0.76;93.50;95175.63;1045446;28;20040;-42
2020/12/31 02:05:12;;;;;;;34.47;20.70;;;;;;;-0.76;93.61;95172.22;1044926;28;20037;-42
2020/12/31 02:05:44;;;;;;;30.17;19.57;;;;;;;-0.75;93.97;95171.25;1040961;28;20013;-42
2020/12/31 02:06:15;;;;;;;31.48;19.50;;;;;;;-0.75;93.85;95174.66;1032479;28;20014;-44
2020/12/31 02:06:45;;;;;;;27.03;17.50;;;;;;;-0.77;93.90;95168.81;1028831;28;20030;-42
2020/12/31 02:07:16;;;;;;;71.53;34.73;;;;;;;-0.77;93.81;95180.94;1032972;28;20046;-42
2020/12/31 02:07:47;;;;;;;132.33;57.37;;;;;;;-0.78;93.76;95177.53;1037102;28;20022;-41
2020/12/31 02:08:17;;;;;;;76.00;37.78;;;;;;;-0.84;93.93;95183.28;1045060;28;20485;-42
2020/12/31 02:08:48;;;;;;;96.77;43.80;;;;;;;-0.86;94.14;95184.41;1045216;28;20025;-42
2020/12/31 02:09:19;;;;;;;162.90;64.80;;;;;;;-0.87;94.10;95182.78;1045317;28;20017;-42
2020/12/31 02:09:49;;;;;;;146.67;60.70;;;;;;;-0.85;93.76;95186.03;1045310;28;20020;-43
2020/12/31 02:10:20;;;;;;;79.90;34.33;;;;;;;-0.85;93.89;95186.03;1045419;28;20052;-42
2020/12/31 02:10:50;;;;;;;126.80;49.40;;;;;;;-0.81;93.74;95187.38;1045270;28;20025;-42
2020/12/31 02:11:22;;;;;;;78.67;33.33;;;;;;;-0.79;93.93;95186.25;1045397;28;20035;-41
2020/12/31 02:11:53;;;;;;;81.53;35.03;;;;;;;-0.79;93.77;95186.25;1045299;28;20021;-42
2020/12/31 02:12:23;;;;;;;53.80;25.73;;;;;;;-0.80;93.42;95179.47;1045336;28;20032;-42
2020/12/31 02:12:54;;;;;;;58.07;26.37;;;;;;;-0.83;93.65;95190.09;1044687;28;20017;-42
2020/12/31 02:13:24;;;;;;;47.33;22.97;;;;;;;-0.84;93.56;95187.66;1040852;28;20014;-43
2020/12/31 02:13:55;;;;;;;31.37;16.57;;;;;;;-0.83;93.77;95179.75;1040785;28;20021;-42
2020/12/31 02:14:25;;;;;;;22.10;12.70;;;;;;;-0.84;94.23;95178.13;1036827;28;20025;-44
2020/12/31 02:14:58;;;;;;;20.97;12.57;;;;;;;-0.83;93.71;95184.13;1032657;28;20018;-43
2020/12/31 02:15:28;;;;;;;19.20;11.90;;;;;;;-0.84;93.76;95185.88;1036723;28;20459;-43
2020/12/31 02:15:59;;;;;;;15.07;9.77;;;;;;;-0.85;93.49;95186.03;1037384;28;20030;-43
2020/12/31 02:16:34;;;;;;;19.03;11.23;;;;;;;-0.85;93.94;95186.84;1033136;28;20029;-42
2020/12/31 02:17:05;;;;;;;15.80;10.10;;;;;;;-0.87;93.87;95183.59;1033555;28;20117;-42
2020/12/31 02:17:35;;;;;;;13.87;8.80;;;;;;;-0.88;93.80;95181.97;1036821;28;20124;-43
2020/12/31 02:18:06;;;;;;;19.33;11.87;;;;;;;-0.91;94.28;95183.09;1038242;28;20470;-43
2020/12/31 02:18:47;;;;;;;17.60;10.50;;;;;;;-0.92;94.06;95176.28;1045147;28;20020;-43
2020/12/31 02:19:18;;;;;;;17.38;11.52;;;;;;;-0.95;94.51;95178.34;1044856;28;20063;-43
2020/12/31 02:19:48;;;;;;;15.53;10.50;;;;;;;-0.95;94.40;95174.00;1040829;28;20026;-43
2020/12/31 02:20:19;;;;;;;14.50;9.90;;;;;;;-0.97;94.30;95185.41;1040782;28;20108;-43
2020/12/31 02:20:49;;;;;;;16.10;10.20;;;;;;;-0.94;94.65;95178.22;1042443;28;20018;-44
2020/12/31 02:21:22;;;;;;;14.60;10.23;;;;;;;-0.93;94.78;95181.59;1044966;28;20036;-43
2020/12/31 02:21:53;;;;;;;13.07;8.95;;;;;;;-0.93;94.41;95182.44;1044994;28;20037;-43
2020/12/31 02:22:23;;;;;;;14.03;9.53;;;;;;;-0.92;94.19;95175.47;1045209;28;20045;-42
2020/12/31 02:22:54;;;;;;;14.07;8.90;;;;;;;-0.92;94.20;95175.47;1044838;28;20017;-42
2020/12/31 02:23:24;;;;;;;14.73;9.60;;;;;;;-0.93;94.16;95179.84;1045236;28;20035;-42
2020/12/31 02:23:55;;;;;;;13.40;8.93;;;;;;;-0.93;94.49;95179.00;1045105;28;20075;-42
2020/12/31 02:24:26;;;;;;;10.88;8.57;;;;;;;-0.93;94.03;95184.19;1044984;28;20152;-42
2020/12/31 02:24:56;;;;;;;13.70;8.97;;;;;;;-0.96;94.47;95185.28;1044758;28;20113;-42